Time;durP1;ratioP1;P1;durP2;ratioP2;P2;SDS_P1;SDS_P2;PMS_P1;PMS_P2;Temp;Humidity;BMP_temperature;BMP_pressure;BME280_temperature;BME280_humidity;BME280_pressure;Samples;Min_cycle;Max_cycle;Signal;HPM_P1;HPM_P2
2021/09/14 00:01:06;;;;;;;4.22;2.10;;;11.90;99.90;;;;;;4999880;28;20484;-68
2021/09/14 00:03:31;;;;;;;3.35;1.75;;;12.00;99.90;;;;;;5002504;28;20061;-68
2021/09/14 00:05:58;;;;;;;8.15;1.60;;;11.90;99.90;;;;;;5002017;28;20046;-68
2021/09/14 00:08:25;;;;;;;4.97;1.50;;;11.90;99.90;;;;;;5001437;28;20076;-68
2021/09/14 00:10:51;;;;;;;6.88;2.33;;;11.90;99.90;;;;;;4998808;28;20057;-68
2021/09/14 00:13:17;;;;;;;3.60;1.80;;;11.90;99.90;;;;;;4999422;28;20077;-68
2021/09/14 00:15:43;;;;;;;4.60;1.90;;;11.90;99.90;;;;;;5001973;28;20103;-68
2021/09/14 00:18:08;;;;;;;6.30;1.67;;;11.90;99.90;;;;;;5002710;28;20053;-69
2021/09/14 00:20:34;;;;;;;4.25;1.73;;;11.90;99.90;;;;;;5001446;28;20073;-69
2021/09/14 00:23:02;;;;;;;3.92;1.67;;;11.90;99.90;;;;;;5002285;28;20398;-68
2021/09/14 00:25:27;;;;;;;3.58;1.77;;;12.00;99.90;;;;;;5000433;28;20092;-69
2021/09/14 00:27:53;;;;;;;3.20;1.75;;;12.00;99.90;;;;;;4999622;28;20552;-69
2021/09/14 00:30:18;;;;;;;3.55;1.55;;;12.00;99.90;;;;;;4999792;28;20421;-68
2021/09/14 00:32:44;;;;;;;4.70;2.05;;;11.90;99.90;;;;;;5000070;28;20104;-68
2021/09/14 00:35:10;;;;;;;6.20;1.80;;;12.00;99.90;;;;;;4999662;28;20061;-68
2021/09/14 00:37:35;;;;;;;4.65;2.53;;;12.00;99.90;;;;;;4999708;28;20038;-68
2021/09/14 00:40:01;;;;;;;5.15;2.20;;;12.00;99.90;;;;;;5000174;28;20112;-69
2021/09/14 00:42:26;;;;;;;5.28;1.92;;;12.10;99.90;;;;;;5003367;28;20057;-68
2021/09/14 00:44:52;;;;;;;2.25;2.05;;;12.10;99.90;;;;;;5002798;28;20511;-68
2021/09/14 00:47:18;;;;;;;3.22;2.03;;;12.10;99.90;;;;;;5001891;28;20049;-68
2021/09/14 00:49:43;;;;;;;4.30;2.35;;;12.20;99.90;;;;;;5003267;28;20515;-69
2021/09/14 00:52:10;;;;;;;3.05;1.88;;;12.20;99.90;;;;;;5001064;28;20076;-69
2021/09/14 00:54:38;;;;;;;4.15;2.80;;;12.20;99.90;;;;;;5002017;28;20038;-69
2021/09/14 00:57:05;;;;;;;7.35;2.35;;;12.30;99.90;;;;;;4999185;28;20038;-69
2021/09/14 00:59:31;;;;;;;7.53;2.50;;;12.30;99.90;;;;;;5000958;28;20057;-69
2021/09/14 01:01:56;;;;;;;5.97;2.22;;;12.30;99.90;;;;;;5001700;28;20042;-68
2021/09/14 01:04:22;;;;;;;3.85;2.70;;;12.30;99.90;;;;;;4998169;28;20084;-68
2021/09/14 01:06:48;;;;;;;3.78;2.42;;;12.30;99.90;;;;;;5001386;28;20113;-68
2021/09/14 01:09:14;;;;;;;5.68;2.83;;;12.30;99.90;;;;;;5002488;28;20064;-68
2021/09/14 01:11:41;;;;;;;7.05;2.70;;;12.30;99.90;;;;;;5003100;28;20045;-68
2021/09/14 01:14:08;;;;;;;5.10;2.72;;;12.30;99.90;;;;;;4999262;28;20045;-68
2021/09/14 01:16:35;;;;;;;4.63;2.70;;;12.40;99.90;;;;;;5001102;28;20054;-68
2021/09/14 01:19:06;;;;;;;6.55;2.63;;;12.40;99.90;;;;;;5001286;28;20471;-69
2021/09/14 01:21:32;;;;;;;6.35;3.35;;;12.40;99.90;;;;;;4999919;28;20496;-68
2021/09/14 01:23:59;;;;;;;4.53;2.38;;;12.40;99.90;;;;;;4999366;28;20038;-69
2021/09/14 01:26:25;;;;;;;3.88;3.20;;;12.40;99.90;;;;;;4984069;28;20111;-69
2021/09/14 01:28:51;;;;;;;6.07;3.38;;;12.40;99.90;;;;;;5000686;28;20038;-68
2021/09/14 01:31:18;;;;;;;8.05;3.30;;;12.40;99.90;;;;;;5001786;28;20392;-68
2021/09/14 01:33:51;;;;;;;5.05;3.15;;;12.50;99.90;;;;;;5000831;28;20034;-68
2021/09/14 01:36:18;;;;;;;4.82;2.70;;;12.50;99.90;;;;;;4999831;28;20096;-69
2021/09/14 01:38:44;;;;;;;3.65;2.80;;;12.50;99.90;;;;;;4986703;28;20547;-69
2021/09/14 01:41:09;;;;;;;5.60;3.08;;;12.50;99.90;;;;;;5002578;28;20034;-68
2021/09/14 01:43:36;;;;;;;10.32;3.22;;;12.50;99.90;;;;;;5000501;28;20484;-69
2021/09/14 01:46:03;;;;;;;3.42;2.65;;;12.50;99.90;;;;;;4999791;28;20049;-69
2021/09/14 01:48:29;;;;;;;6.05;3.13;;;12.50;99.90;;;;;;5000946;28;20049;-68
2021/09/14 01:50:54;;;;;;;7.28;3.30;;;12.50;99.90;;;;;;5001448;28;20472;-68
2021/09/14 01:53:22;;;;;;;4.63;2.83;;;12.50;99.90;;;;;;4998637;28;20468;-68
2021/09/14 01:55:48;;;;;;;7.53;3.13;;;12.40;99.90;;;;;;4999193;28;20136;-69
2021/09/14 01:58:13;;;;;;;7.90;3.45;;;12.40;99.90;;;;;;5000338;28;20241;-69
2021/09/14 02:00:46;;;;;;;5.82;3.30;;;12.40;99.90;;;;;;4997152;28;20139;-69
2021/09/14 02:08:50;;;;;;;7.75;3.45;;;12.40;99.90;;;;;;4998310;28;20669;-68
2021/09/14 02:44:19;;;;;;;9.95;4.30;;;12.20;99.90;;;;;;5003630;28;20048;-68
2021/09/14 03:00:26;;;;;;;7.13;4.50;;;12.10;99.90;;;;;;5003494;28;20046;-69
2021/09/14 03:02:52;;;;;;;7.10;4.82;;;12.10;99.90;;;;;;5003425;28;20041;-68
2021/09/14 03:05:17;;;;;;;7.03;4.65;;;12.10;99.90;;;;;;5005257;28;20069;-68
2021/09/14 03:07:43;;;;;;;5.30;4.43;;;12.10;99.90;;;;;;5007386;28;20393;-68
2021/09/14 03:10:09;;;;;;;7.65;4.47;;;12.10;99.90;;;;;;4999301;28;20222;-68
2021/09/14 03:12:34;;;;;;;8.85;4.65;;;12.10;99.90;;;;;;5004294;28;20045;-68
2021/09/14 03:15:00;;;;;;;6.35;5.25;;;12.10;99.90;;;;;;5002164;28;20100;-68
2021/09/14 03:17:25;;;;;;;11.68;5.30;;;12.10;99.90;;;;;;5001076;28;20157;-69
2021/09/14 03:19:51;;;;;;;6.05;5.35;;;12.00;99.90;;;;;;5002058;28;20124;-69
2021/09/14 03:22:16;;;;;;;6.13;4.90;;;12.00;99.90;;;;;;5001799;28;20163;-68
2021/09/14 03:24:42;;;;;;;7.70;5.25;;;11.90;99.90;;;;;;5001669;28;20073;-68
2021/09/14 03:27:07;;;;;;;8.93;4.93;;;11.90;99.90;;;;;;5007180;28;20041;-68
2021/09/14 03:29:33;;;;;;;8.68;5.10;;;11.90;99.90;;;;;;5006676;28;20042;-69
2021/09/14 03:31:58;;;;;;;10.85;4.90;;;11.90;99.90;;;;;;5004843;28;20040;-69
2021/09/14 03:34:24;;;;;;;6.78;5.00;;;11.90;99.90;;;;;;5006315;28;20057;-68
2021/09/14 03:36:50;;;;;;;12.38;4.63;;;11.90;99.90;;;;;;5006851;28;20073;-68
2021/09/14 03:39:15;;;;;;;8.43;5.13;;;11.90;99.90;;;;;;5003250;28;20038;-68
2021/09/14 03:41:41;;;;;;;9.68;5.75;;;11.90;99.90;;;;;;5005043;28;20042;-68
2021/09/14 03:44:06;;;;;;;10.82;5.72;;;11.80;99.90;;;;;;5004915;28;20092;-68
2021/09/14 03:46:32;;;;;;;11.63;6.45;;;11.80;99.90;;;;;;5002922;28;20029;-68
2021/09/14 03:48:57;;;;;;;7.43;6.05;;;11.80;99.90;;;;;;5008915;28;20221;-68
2021/09/14 03:51:23;;;;;;;11.25;6.30;;;11.80;99.90;;;;;;5004782;28;20053;-69
2021/09/14 03:53:49;;;;;;;13.20;6.55;;;11.80;99.90;;;;;;5009159;28;20460;-68
2021/09/14 03:56:14;;;;;;;8.23;6.70;;;11.70;99.90;;;;;;5004271;28;20073;-68
2021/09/14 03:58:40;;;;;;;8.15;6.20;;;11.70;99.90;;;;;;5002185;28;20049;-68
2021/09/14 04:01:06;;;;;;;12.02;7.05;;;11.70;99.90;;;;;;5005215;28;20140;-68
2021/09/14 04:11:14;;;;;;;9.95;6.70;;;11.60;99.90;;;;;;5002340;28;20046;-68
2021/09/14 04:13:39;;;;;;;11.48;7.40;;;11.60;99.90;;;;;;5007849;28;20038;-68
2021/09/14 04:16:05;;;;;;;12.93;7.28;;;11.60;99.90;;;;;;5001159;28;20034;-68
2021/09/14 04:18:31;;;;;;;12.73;7.40;;;11.60;99.90;;;;;;5001819;28;20558;-68
2021/09/14 04:20:56;;;;;;;12.75;7.93;;;11.60;99.90;;;;;;5002513;28;20072;-69
2021/09/14 04:23:22;;;;;;;10.35;7.22;;;11.60;99.90;;;;;;5002069;28;20046;-68
2021/09/14 04:25:47;;;;;;;9.63;7.18;;;11.60;99.90;;;;;;5002772;28;20045;-68
2021/09/14 04:28:13;;;;;;;14.82;6.85;;;11.50;99.90;;;;;;5006334;28;20103;-69
2021/09/14 04:30:39;;;;;;;10.18;6.80;;;11.60;99.90;;;;;;5005870;28;20049;-68
2021/09/14 04:33:05;;;;;;;9.98;7.68;;;11.60;99.90;;;;;;5004320;28;20046;-68
2021/09/14 04:35:31;;;;;;;11.75;7.85;;;11.60;99.90;;;;;;5005316;28;20088;-68
2021/09/14 04:37:57;;;;;;;14.43;7.65;;;11.60;99.90;;;;;;5007280;28;20086;-69
2021/09/14 04:40:22;;;;;;;11.27;7.15;;;11.60;99.90;;;;;;5003188;28;20092;-68
2021/09/14 04:42:48;;;;;;;11.05;7.35;;;11.60;99.90;;;;;;5003030;28;20084;-68
2021/09/14 04:45:14;;;;;;;11.27;7.35;;;11.60;99.90;;;;;;5005371;28;20488;-68
2021/09/14 04:47:40;;;;;;;13.13;7.63;;;11.60;99.90;;;;;;5003905;28;20108;-69
2021/09/14 04:50:05;;;;;;;8.80;7.07;;;11.60;99.90;;;;;;5005139;28;20030;-68
2021/09/14 04:52:31;;;;;;;11.60;8.10;;;11.60;99.90;;;;;;5003747;28;20038;-68
2021/09/14 04:54:57;;;;;;;9.77;7.70;;;11.60;99.90;;;;;;5004255;28;20528;-69
2021/09/14 04:57:22;;;;;;;10.98;7.25;;;11.50;99.90;;;;;;5003968;28;20088;-68
2021/09/14 04:59:48;;;;;;;13.88;8.70;;;11.50;99.90;;;;;;5006534;28;20064;-68
2021/09/14 05:02:13;;;;;;;12.15;8.23;;;11.50;99.90;;;;;;5005341;28;20034;-68
2021/09/14 05:04:39;;;;;;;16.13;8.90;;;11.50;99.90;;;;;;5003957;28;20045;-68
2021/09/14 05:07:05;;;;;;;12.32;8.40;;;11.50;99.90;;;;;;5005971;28;20049;-68
2021/09/14 05:09:31;;;;;;;12.57;7.80;;;11.50;99.90;;;;;;5006766;28;20099;-68
2021/09/14 05:11:56;;;;;;;11.65;7.95;;;11.50;99.90;;;;;;5003109;28;20042;-69
2021/09/14 05:14:22;;;;;;;12.50;8.85;;;11.40;99.90;;;;;;5000237;28;20555;-68
2021/09/14 05:16:48;;;;;;;10.95;8.45;;;11.40;99.90;;;;;;5000052;28;20083;-68
2021/09/14 05:19:16;;;;;;;12.82;8.10;;;11.40;99.90;;;;;;5002524;28;22636;-68
2021/09/14 05:21:46;;;;;;;11.20;8.18;;;11.40;99.90;;;;;;5002058;28;20405;-68
2021/09/14 05:24:13;;;;;;;11.15;8.00;;;11.50;99.90;;;;;;4997516;28;20080;-68
2021/09/14 05:26:40;;;;;;;13.20;8.55;;;11.40;99.90;;;;;;5000286;28;20455;-68
2021/09/14 05:29:05;;;;;;;9.90;8.25;;;11.50;99.90;;;;;;5003729;28;20442;-68
2021/09/14 05:31:33;;;;;;;10.77;7.20;;;11.50;99.90;;;;;;4999578;28;20140;-69
2021/09/14 05:33:59;;;;;;;10.98;7.18;;;11.60;99.90;;;;;;4999917;28;20034;-68
2021/09/14 05:36:24;;;;;;;13.10;8.48;;;11.60;99.90;;;;;;4998503;28;20097;-69
2021/09/14 05:38:50;;;;;;;10.93;8.80;;;11.60;99.90;;;;;;4999079;28;20487;-69
2021/09/14 05:41:15;;;;;;;12.68;9.02;;;11.60;99.90;;;;;;4998716;28;20076;-69
2021/09/14 05:43:41;;;;;;;11.10;9.25;;;11.70;99.90;;;;;;4999563;28;20488;-69
2021/09/14 05:46:06;;;;;;;11.18;8.52;;;11.70;99.90;;;;;;4999308;28;20053;-68
2021/09/14 05:48:33;;;;;;;10.40;7.15;;;11.90;99.90;;;;;;5002590;28;20053;-68
2021/09/14 05:50:59;;;;;;;13.68;7.20;;;12.30;99.90;;;;;;4996441;28;20510;-69
2021/09/14 05:53:24;;;;;;;8.43;7.10;;;12.80;99.90;;;;;;4998823;28;20034;-68
2021/09/14 05:55:50;;;;;;;11.63;6.28;;;13.30;99.90;;;;;;5002564;28;20120;-70
2021/09/14 05:58:15;;;;;;;6.80;5.32;;;14.00;99.90;;;;;;4997945;28;20107;-68
2021/09/14 06:00:42;;;;;;;8.20;6.20;;;15.00;99.90;;;;;;4997691;28;20566;-68
2021/09/14 06:03:07;;;;;;;6.20;5.28;;;15.90;99.90;;;;;;4998231;28;20149;-68
2021/09/14 06:05:33;;;;;;;6.25;5.50;;;16.70;99.90;;;;;;5000547;28;20046;-68
2021/09/14 06:07:58;;;;;;;7.60;5.68;;;17.50;99.90;;;;;;4986651;28;20080;-68
2021/09/14 06:10:24;;;;;;;6.88;5.32;;;18.00;99.90;;;;;;4998593;28;21285;-68
2021/09/14 06:12:50;;;;;;;9.20;4.63;;;18.50;99.90;;;;;;4997866;28;20052;-68
2021/09/14 06:15:15;;;;;;;6.75;5.20;;;19.00;99.90;;;;;;5001449;28;20380;-68
2021/09/14 06:17:42;;;;;;;9.32;5.50;;;19.50;99.90;;;;;;4998802;28;20095;-68
2021/09/14 06:20:08;;;;;;;6.03;5.15;;;20.10;99.90;;;;;;4994743;28;20060;-68
2021/09/14 06:22:34;;;;;;;10.15;4.78;;;20.60;99.90;;;;;;5000188;28;20124;-68
2021/09/14 06:25:00;;;;;;;8.10;4.72;;;21.10;99.90;;;;;;4999619;28;20211;-69
2021/09/14 06:27:25;;;;;;;6.13;4.53;;;21.40;99.90;;;;;;4997870;28;20046;-69
2021/09/14 06:29:51;;;;;;;6.38;4.88;;;21.70;99.90;;;;;;5001149;28;20041;-69
2021/09/14 06:32:17;;;;;;;6.88;5.43;;;21.90;99.90;;;;;;4998413;28;20042;-69
2021/09/14 06:34:43;;;;;;;7.95;5.45;;;22.50;99.90;;;;;;4983953;28;20072;-69
2021/09/14 06:37:09;;;;;;;8.48;5.97;;;22.50;99.90;;;;;;4987643;28;20034;-69
2021/09/14 06:39:37;;;;;;;7.90;6.03;;;21.90;99.90;;;;;;4987869;28;20386;-69
2021/09/14 06:42:04;;;;;;;7.03;5.60;;;21.30;99.90;;;;;;4987072;28;20377;-69
2021/09/14 06:44:31;;;;;;;8.27;6.38;;;21.00;99.90;;;;;;4989105;28;20042;-69
2021/09/14 06:46:57;;;;;;;9.05;6.40;;;20.70;99.90;;;;;;4988404;28;20042;-69
2021/09/14 06:49:23;;;;;;;7.47;6.70;;;20.20;99.90;;;;;;4987497;28;20080;-69
2021/09/14 06:51:49;;;;;;;6.88;6.18;;;19.60;99.90;;;;;;4987716;28;20089;-69
2021/09/14 06:54:15;;;;;;;12.80;7.57;;;19.20;99.90;;;;;;4987729;28;20037;-69
2021/09/14 06:56:41;;;;;;;9.85;7.13;;;18.60;99.90;;;;;;4989151;28;20042;-69
2021/09/14 06:59:06;;;;;;;8.80;6.55;;;18.30;99.90;;;;;;4989443;28;20042;-69
2021/09/14 07:01:33;;;;;;;9.90;6.95;;;17.90;99.90;;;;;;4987895;28;20061;-69
2021/09/14 07:03:59;;;;;;;8.48;7.28;;;17.80;99.90;;;;;;4989106;28;20084;-69
2021/09/14 07:06:24;;;;;;;9.18;7.10;;;17.40;99.90;;;;;;4989094;28;20416;-69
2021/09/14 07:08:50;;;;;;;11.60;7.57;;;17.20;99.90;;;;;;4986868;28;20053;-69
2021/09/14 07:11:16;;;;;;;9.57;7.30;;;17.20;99.90;;;;;;4991997;28;20084;-69
2021/09/14 07:13:42;;;;;;;9.80;7.28;;;17.20;99.90;;;;;;4988129;28;20044;-69
2021/09/14 07:16:08;;;;;;;10.57;8.55;;;16.90;99.90;;;;;;4988406;28;20042;-69
2021/09/14 07:18:38;;;;;;;10.20;7.65;;;16.80;99.90;;;;;;4989320;28;20072;-69
2021/09/14 07:21:04;;;;;;;9.20;7.53;;;16.70;99.90;;;;;;4987367;28;20110;-69
2021/09/14 07:23:29;;;;;;;11.13;7.85;;;16.60;99.90;;;;;;5001466;28;20447;-69
2021/09/14 07:25:55;;;;;;;7.82;6.95;;;16.60;99.90;;;;;;4988257;28;20044;-69
2021/09/14 07:28:21;;;;;;;9.43;7.60;;;16.60;99.90;;;;;;4989348;28;20619;-69
2021/09/14 07:30:47;;;;;;;11.75;8.85;;;16.60;99.90;;;;;;4989604;28;20902;-69
2021/09/14 07:33:13;;;;;;;9.80;7.97;;;16.60;99.90;;;;;;4987469;28;20045;-69
2021/09/14 07:35:40;;;;;;;10.20;7.70;;;16.70;99.90;;;;;;4988766;28;20088;-69
2021/09/14 07:38:05;;;;;;;10.45;8.20;;;16.60;99.90;;;;;;4987453;28;20049;-69
2021/09/14 07:40:31;;;;;;;8.57;7.45;;;16.60;99.90;;;;;;4988990;28;20081;-69
2021/09/14 07:42:58;;;;;;;13.30;7.78;;;16.60;99.90;;;;;;4989459;28;20046;-69
2021/09/14 07:45:24;;;;;;;11.80;7.70;;;16.70;99.90;;;;;;4989184;28;20124;-69
2021/09/14 07:47:50;;;;;;;10.35;8.02;;;16.70;99.90;;;;;;4984845;28;20050;-69
2021/09/14 07:50:16;;;;;;;9.68;7.47;;;16.70;99.90;;;;;;4990048;28;20392;-69
2021/09/14 07:52:42;;;;;;;11.20;7.80;;;16.60;99.90;;;;;;4986359;28;20038;-69
2021/09/14 07:55:08;;;;;;;11.55;8.48;;;16.70;99.90;;;;;;4985666;28;20064;-69
2021/09/14 07:57:34;;;;;;;10.75;8.05;;;16.70;99.90;;;;;;4989992;28;20069;-69
2021/09/14 08:00:00;;;;;;;7.63;6.53;;;16.70;99.90;;;;;;4986373;28;20148;-69
2021/09/14 08:02:26;;;;;;;8.80;6.32;;;16.70;99.90;;;;;;4993140;28;20054;-69
2021/09/14 08:04:51;;;;;;;12.63;7.60;;;16.80;99.90;;;;;;4976981;28;20168;-69
2021/09/14 08:07:18;;;;;;;10.35;7.30;;;16.90;99.90;;;;;;4992341;28;20049;-69
2021/09/14 08:09:44;;;;;;;12.27;7.35;;;16.80;99.90;;;;;;4989679;28;20073;-69
2021/09/14 08:12:09;;;;;;;9.43;7.40;;;16.90;99.90;;;;;;4977526;28;20161;-69
2021/09/14 08:14:35;;;;;;;14.57;7.47;;;16.90;99.90;;;;;;4997637;28;20495;-69
2021/09/14 08:17:01;;;;;;;9.13;6.05;;;16.90;99.90;;;;;;4997368;28;20061;-69
2021/09/14 08:19:27;;;;;;;9.27;7.30;;;17.20;99.90;;;;;;4993619;28;20050;-69
2021/09/14 08:21:53;;;;;;;11.23;6.80;;;17.40;99.90;;;;;;4993112;28;20125;-69
2021/09/14 08:24:19;;;;;;;11.93;6.50;;;17.50;99.90;;;;;;4996421;28;20128;-69
2021/09/14 08:26:46;;;;;;;8.23;6.60;;;17.80;99.90;;;;;;4993513;28;20042;-69
2021/09/14 08:29:11;;;;;;;8.48;6.47;;;18.00;99.90;;;;;;4996930;28;20088;-69
2021/09/14 08:31:38;;;;;;;7.68;6.57;;;18.20;99.90;;;;;;4995361;28;20038;-69
2021/09/14 08:34:04;;;;;;;12.57;7.28;;;18.40;99.90;;;;;;4994562;28;20069;-69
2021/09/14 08:36:30;;;;;;;9.15;6.03;;;18.50;99.90;;;;;;4996653;28;20040;-69
2021/09/14 08:38:56;;;;;;;11.75;6.95;;;18.60;99.90;;;;;;4996006;28;20054;-69
2021/09/14 08:41:23;;;;;;;8.82;6.32;;;18.80;99.90;;;;;;4995428;28;20037;-69
2021/09/14 08:43:50;;;;;;;10.40;6.40;;;19.00;99.90;;;;;;4995848;28;20053;-69
2021/09/14 08:46:18;;;;;;;8.05;6.05;;;19.20;99.90;;;;;;4993945;28;20050;-69
2021/09/14 08:48:45;;;;;;;11.25;6.90;;;19.20;99.90;;;;;;4993988;28;20046;-69
2021/09/14 08:51:11;;;;;;;9.50;5.97;;;19.30;99.90;;;;;;4993866;28;20046;-69
2021/09/14 08:53:38;;;;;;;10.10;6.80;;;19.40;99.90;;;;;;4993287;28;20672;-69
2021/09/14 08:56:06;;;;;;;9.57;6.15;;;19.40;99.90;;;;;;4993450;28;20084;-69
2021/09/14 08:58:32;;;;;;;8.63;6.75;;;19.40;99.90;;;;;;4996094;28;20156;-69
2021/09/14 09:00:57;;;;;;;7.00;6.30;;;19.50;99.90;;;;;;4978975;28;20481;-69
2021/09/14 09:03:28;;;;;;;7.95;6.07;;;19.40;99.90;;;;;;4999616;28;20057;-69
2021/09/14 09:05:55;;;;;;;7.72;6.88;;;19.50;99.90;;;;;;4991432;28;20070;-69
2021/09/14 09:08:24;;;;;;;13.50;7.43;;;19.40;99.90;;;;;;4991791;28;20030;-69
2021/09/14 09:11:07;;;;;;;7.78;6.53;;;19.70;99.90;;;;;;4989270;28;20048;-69
2021/09/14 09:13:44;;;;;;;10.93;6.10;;;19.80;99.90;;;;;;4991565;28;20050;-69
2021/09/14 09:16:27;;;;;;;9.50;6.45;;;19.80;99.90;;;;;;4990052;28;20382;-69
2021/09/14 09:19:01;;;;;;;8.30;6.40;;;19.70;99.90;;;;;;4988259;28;20050;-69
2021/09/14 09:21:38;;;;;;;7.80;6.13;;;19.60;99.90;;;;;;4988053;28;21800;-69
2021/09/14 09:24:11;;;;;;;11.65;7.13;;;19.70;99.90;;;;;;4989172;28;20054;-69
2021/09/14 09:26:42;;;;;;;7.88;6.43;;;19.60;99.90;;;;;;4988123;28;20073;-69
2021/09/14 09:29:09;;;;;;;7.18;6.38;;;19.50;99.90;;;;;;4988745;28;20141;-69
2021/09/14 09:31:37;;;;;;;8.68;6.70;;;19.40;99.90;;;;;;4989899;28;20077;-69
2021/09/14 09:34:08;;;;;;;8.27;6.25;;;19.30;99.90;;;;;;4988466;28;20060;-69
2021/09/14 09:36:42;;;;;;;7.00;6.13;;;19.30;99.90;;;;;;4970706;28;20041;-69
2021/09/14 09:39:13;;;;;;;12.32;6.63;;;19.20;99.90;;;;;;4989721;28;20045;-69
2021/09/14 09:41:50;;;;;;;7.50;6.30;;;19.20;99.90;;;;;;4988262;28;20050;-69
2021/09/14 09:44:15;;;;;;;9.55;6.05;;;19.20;99.90;;;;;;4989415;28;20117;-69
2021/09/14 09:46:41;;;;;;;10.13;6.70;;;19.20;99.90;;;;;;4989134;28;20056;-69
2021/09/14 09:49:08;;;;;;;8.88;6.75;;;19.20;99.90;;;;;;4990918;28;20042;-69
2021/09/14 09:51:36;;;;;;;8.70;6.68;;;19.30;99.90;;;;;;4987888;28;20045;-69
2021/09/14 09:54:03;;;;;;;7.53;5.45;;;19.50;99.90;;;;;;4988424;28;20061;-69
2021/09/14 09:56:30;;;;;;;7.55;6.43;;;19.60;99.90;;;;;;4989652;28;20037;-69
2021/09/14 09:58:56;;;;;;;6.93;6.22;;;19.80;99.90;;;;;;4987996;28;20553;-70
2021/09/14 10:01:25;;;;;;;6.30;5.47;;;20.10;99.90;;;;;;4987745;28;20048;-69
2021/09/14 10:04:06;;;;;;;11.15;6.40;;;20.10;99.90;;;;;;4988886;28;20041;-69
2021/09/14 10:06:40;;;;;;;8.57;6.22;;;20.30;99.90;;;;;;4989674;28;20041;-69
2021/09/14 10:09:06;;;;;;;8.73;6.60;;;20.40;99.90;;;;;;4989443;28;20156;-69
2021/09/14 10:11:35;;;;;;;9.35;6.15;;;20.40;99.90;;;;;;4990726;28;20164;-69
2021/09/14 10:14:12;;;;;;;8.20;5.57;;;20.50;99.90;;;;;;4989159;28;20038;-69
2021/09/14 10:16:44;;;;;;;6.00;5.40;;;20.60;99.90;;;;;;4989900;28;20034;-69
2021/09/14 10:19:14;;;;;;;7.07;6.18;;;20.90;99.90;;;;;;4987991;28;20049;-69
2021/09/14 10:22:07;;;;;;;7.68;5.55;;;21.00;99.90;;;;;;4989411;28;20080;-69
2021/09/14 10:24:35;;;;;;;7.63;6.00;;;21.30;99.90;;;;;;4988353;28;20210;-70
2021/09/14 10:27:14;;;;;;;9.60;6.10;;;21.30;99.90;;;;;;4987620;28;20045;-69
2021/09/14 10:29:41;;;;;;;7.15;5.60;;;21.30;99.90;;;;;;4990518;28;20519;-69
2021/09/14 10:32:12;;;;;;;10.82;7.57;;;21.30;99.90;;;;;;4988870;28;20621;-69
2021/09/14 10:34:42;;;;;;;5.50;4.93;;;21.40;99.90;;;;;;4987051;28;20057;-69
2021/09/14 10:37:09;;;;;;;9.20;5.53;;;21.50;99.90;;;;;;4986458;28;20046;-69
2021/09/14 10:39:38;;;;;;;6.30;5.68;;;21.50;99.90;;;;;;4987312;28;21263;-69
2021/09/14 10:42:21;;;;;;;5.95;4.57;;;21.60;99.90;;;;;;4986533;28;20056;-69
2021/09/14 10:44:49;;;;;;;7.80;5.35;;;21.60;99.90;;;;;;4968132;28;20041;-70
2021/09/14 10:47:19;;;;;;;5.88;4.78;;;21.60;99.90;;;;;;4989018;28;20037;-70
2021/09/14 10:49:54;;;;;;;9.02;5.97;;;21.70;99.90;;;;;;4971436;28;20052;-69
2021/09/14 10:52:36;;;;;;;4.93;4.53;;;21.70;99.90;;;;;;4986961;28;20404;-70
2021/09/14 10:55:13;;;;;;;4.93;4.53;;;21.80;99.90;;;;;;4986023;28;20070;-70
2021/09/14 10:57:50;;;;;;;6.45;4.93;;;21.90;99.90;;;;;;4986974;28;20077;-70
2021/09/14 11:00:18;;;;;;;9.13;5.80;;;21.90;99.90;;;;;;4993143;28;20127;-69
2021/09/14 11:02:55;;;;;;;10.75;4.80;;;21.90;99.90;;;;;;4987815;28;20471;-70
2021/09/14 11:05:26;;;;;;;6.25;5.65;;;22.00;99.90;;;;;;4989604;28;20133;-70
2021/09/14 11:08:03;;;;;;;7.75;5.45;;;22.10;99.90;;;;;;4992495;28;20077;-69
2021/09/14 11:10:40;;;;;;;8.60;5.40;;;22.10;99.90;;;;;;4990132;28;20721;-69
2021/09/14 11:13:07;;;;;;;5.85;4.60;;;22.00;99.90;;;;;;4991481;28;20538;-70
2021/09/14 11:15:34;;;;;;;7.68;4.82;;;22.00;99.90;;;;;;4988618;28;20043;-70
2021/09/14 11:18:00;;;;;;;6.85;4.95;;;21.90;99.90;;;;;;4988503;28;20417;-70
2021/09/14 11:20:29;;;;;;;11.50;5.88;;;22.00;99.90;;;;;;4990581;28;20038;-70
2021/09/14 11:22:56;;;;;;;5.43;4.25;;;22.10;99.90;;;;;;4988451;28;20468;-70
2021/09/14 11:25:28;;;;;;;5.30;4.63;;;22.10;99.90;;;;;;5004210;28;20087;-70
2021/09/14 11:28:01;;;;;;;5.85;5.25;;;22.30;99.90;;;;;;4989033;28;20575;-69
2021/09/14 11:30:28;;;;;;;6.45;5.03;;;22.20;99.90;;;;;;4988132;28;20034;-69
2021/09/14 11:32:55;;;;;;;6.22;4.72;;;22.30;99.90;;;;;;4989579;28;20407;-70
2021/09/14 11:35:27;;;;;;;8.68;5.40;;;22.20;99.90;;;;;;4988292;28;20441;-70
2021/09/14 11:38:11;;;;;;;5.72;4.70;;;22.20;99.90;;;;;;4990409;28;20048;-70
2021/09/14 11:40:49;;;;;;;6.00;4.93;;;22.20;99.90;;;;;;4989305;28;20120;-70
2021/09/14 11:43:20;;;;;;;6.28;5.65;;;22.30;99.90;;;;;;4989607;28;20030;-69
2021/09/14 11:45:47;;;;;;;10.18;5.72;;;22.30;99.90;;;;;;4974367;28;20049;-69
2021/09/14 11:48:20;;;;;;;8.38;5.55;;;22.30;99.90;;;;;;4992933;28;20050;-69
2021/09/14 11:50:47;;;;;;;6.82;5.03;;;22.30;99.90;;;;;;4994232;28;20040;-69
2021/09/14 11:53:18;;;;;;;6.40;5.32;;;22.30;99.90;;;;;;4993541;28;20034;-69
2021/09/14 11:55:49;;;;;;;6.90;5.90;;;22.40;99.90;;;;;;5008085;28;20049;-69
2021/09/14 11:58:36;;;;;;;6.80;5.78;;;22.30;99.90;;;;;;4992865;28;20141;-69
2021/09/14 12:01:08;;;;;;;5.72;5.18;;;22.50;99.90;;;;;;4994708;28;20069;-69
2021/09/14 12:03:52;;;;;;;7.30;5.75;;;22.50;99.90;;;;;;4992183;28;20069;-69
2021/09/14 12:06:27;;;;;;;6.32;4.90;;;22.60;99.90;;;;;;4994720;28;20393;-69
2021/09/14 12:08:57;;;;;;;9.10;5.10;;;22.70;99.90;;;;;;4995183;28;20038;-69
2021/09/14 12:11:31;;;;;;;5.10;4.60;;;22.80;99.90;;;;;;4992364;28;20598;-69
2021/09/14 12:14:09;;;;;;;12.80;4.57;;;22.80;99.90;;;;;;4994924;28;20054;-69
2021/09/14 12:16:38;;;;;;;8.43;5.10;;;22.90;99.90;;;;;;4994265;28;20045;-69
2021/09/14 12:19:05;;;;;;;6.32;5.55;;;22.80;99.90;;;;;;4994477;28;20080;-69
2021/09/14 12:21:31;;;;;;;9.45;5.32;;;22.70;99.90;;;;;;4991588;28;20056;-69
2021/09/14 12:23:58;;;;;;;5.18;4.72;;;22.70;99.90;;;;;;4992198;28;20919;-69
2021/09/14 12:26:37;;;;;;;6.20;4.53;;;22.60;99.90;;;;;;4992580;28;20046;-69
2021/09/14 12:29:03;;;;;;;7.97;4.63;;;22.90;99.90;;;;;;5007868;28;20041;-69
2021/09/14 12:31:29;;;;;;;6.07;5.00;;;22.70;99.90;;;;;;4991936;28;20049;-67
2021/09/14 12:33:55;;;;;;;5.90;4.22;;;22.80;99.90;;;;;;4990269;28;20053;-66
2021/09/14 12:36:21;;;;;;;5.65;4.68;;;22.90;99.90;;;;;;4991969;28;20156;-66
2021/09/14 12:38:47;;;;;;;9.48;5.18;;;22.80;99.90;;;;;;4990335;28;20046;-67
2021/09/14 12:41:15;;;;;;;8.95;5.25;;;22.80;99.90;;;;;;4993794;28;20484;-67
2021/09/14 12:43:42;;;;;;;6.20;5.30;;;22.90;99.90;;;;;;4992601;28;21830;-66
2021/09/14 12:46:07;;;;;;;9.30;6.18;;;22.70;99.90;;;;;;4991108;28;20053;-67
2021/09/14 12:48:33;;;;;;;5.63;4.85;;;22.80;99.90;;;;;;4993207;28;20041;-66
2021/09/14 12:51:00;;;;;;;6.80;4.85;;;22.70;99.90;;;;;;4992723;28;20484;-66
2021/09/14 12:53:27;;;;;;;6.13;5.03;;;22.70;99.90;;;;;;4993350;28;20042;-66
2021/09/14 12:55:53;;;;;;;6.50;5.43;;;22.70;99.90;;;;;;4993423;28;20753;-67
2021/09/14 12:58:18;;;;;;;8.30;6.03;;;22.70;99.90;;;;;;4991663;28;20061;-67
2021/09/14 13:00:44;;;;;;;7.40;5.38;;;22.70;99.90;;;;;;4994184;28;20057;-66
2021/09/14 13:03:10;;;;;;;8.85;5.55;;;22.80;99.90;;;;;;4993216;28;20060;-66
2021/09/14 13:05:36;;;;;;;7.60;6.47;;;22.90;99.90;;;;;;4991118;28;20099;-69
2021/09/14 13:08:03;;;;;;;5.22;4.72;;;23.00;99.90;;;;;;4993190;28;20568;-69
2021/09/14 13:10:29;;;;;;;7.78;6.95;;;23.00;99.90;;;;;;4975845;28;20038;-68
2021/09/14 13:18:24;;;;;;;6.10;5.05;;;23.50;99.90;;;;;;4994086;28;20045;-67
2021/09/14 13:20:50;;;;;;;5.05;4.45;;;23.50;99.90;;;;;;4990933;28;20053;-67
2021/09/14 13:23:16;;;;;;;5.47;4.45;;;23.60;99.90;;;;;;4994417;28;20428;-67
2021/09/14 13:25:42;;;;;;;11.30;4.90;;;23.60;99.90;;;;;;4992855;28;20037;-68
2021/09/14 13:28:08;;;;;;;5.25;4.75;;;23.60;99.90;;;;;;4991412;28;20183;-67
2021/09/14 13:30:34;;;;;;;5.20;4.70;;;23.40;99.90;;;;;;4990767;28;20034;-67
2021/09/14 13:33:00;;;;;;;6.63;4.90;;;23.50;99.90;;;;;;5007596;28;20052;-67
2021/09/14 13:35:25;;;;;;;5.10;4.18;;;23.40;99.90;;;;;;4986574;28;20042;-67
2021/09/14 13:37:53;;;;;;;6.55;5.40;;;23.40;99.90;;;;;;4988516;28;20408;-67
2021/09/14 13:40:19;;;;;;;5.32;3.97;;;23.30;99.90;;;;;;4987914;28;20065;-68
2021/09/14 13:42:52;;;;;;;5.13;4.03;;;23.20;99.90;;;;;;4992057;28;20070;-67
2021/09/14 13:46:18;;;;;;;5.88;4.22;;;23.30;99.90;;;;;;4990573;28;20060;-67
2021/09/14 13:48:20;;;;;;;5.60;4.40;;;23.30;99.90;;;;;;4989916;28;20046;-67
2021/09/14 13:50:45;;;;;;;4.85;4.32;;;23.20;99.90;;;;;;4992170;28;20616;-67